createdAt,value
2022-09-04T00:00:14.691Z,6.07
2022-09-04T00:02:40.888Z,8.60
2022-09-04T00:04:29.069Z,7.37
2022-09-04T00:06:13.647Z,5.23
2022-09-04T00:08:20.849Z,5.50
2022-09-04T00:10:29.771Z,7.07
2022-09-04T00:12:09.512Z,6.20
2022-09-04T00:14:07.147Z,5.63
2022-09-04T00:15:52.194Z,6.80
2022-09-04T00:17:52.558Z,6.17
2022-09-04T00:19:35.808Z,6.90
2022-09-04T00:21:27.704Z,9.13
2022-09-04T00:23:41.402Z,8.27
2022-09-04T00:25:57.765Z,7.03
2022-09-04T00:27:44.720Z,10.90
2022-09-04T00:29:55.527Z,9.93
2022-09-04T00:31:50.235Z,6.27
2022-09-04T00:34:01.496Z,8.23
2022-09-04T00:35:54.964Z,6.00
2022-09-04T00:37:37.034Z,9.57
2022-09-04T00:39:22.622Z,24.37
2022-09-04T00:41:33.480Z,22.03
2022-09-04T00:43:52.536Z,19.47
2022-09-04T00:46:05.190Z,12.27
2022-09-04T00:48:26.980Z,8.70
2022-09-04T00:50:43.235Z,12.97
2022-09-04T00:52:40.022Z,8.93
2022-09-04T00:54:40.274Z,10.27
2022-09-04T00:56:50.243Z,7.53
2022-09-04T00:59:12.843Z,20.97
2022-09-04T01:00:47.806Z,8.30
2022-09-04T01:03:07.637Z,8.83
2022-09-04T01:05:03.238Z,7.07
2022-09-04T01:07:17.153Z,6.07
2022-09-04T01:09:31.504Z,7.10
2022-09-04T01:11:37.428Z,5.70
2022-09-04T01:13:47.531Z,5.80
2022-09-04T01:15:44.537Z,11.37
2022-09-04T01:17:41.795Z,17.23
2022-09-04T01:19:14.056Z,25.73
2022-09-04T01:21:18.954Z,8.17
2022-09-04T01:23:28.601Z,12.67
2022-09-04T01:25:49.931Z,10.00
2022-09-04T01:27:42.186Z,9.07
2022-09-04T01:29:39.867Z,12.13
2022-09-04T01:31:30.696Z,17.53
2022-09-04T01:33:14.426Z,13.17
2022-09-04T01:35:01.891Z,7.77
2022-09-04T01:36:47.868Z,6.53
2022-09-04T01:38:35.668Z,5.07
2022-09-04T01:40:45.456Z,5.77
2022-09-04T01:42:56.039Z,5.37
2022-09-04T01:44:30.738Z,6.30
2022-09-04T01:46:31.588Z,5.57
2022-09-04T01:48:08.044Z,4.57
2022-09-04T01:49:59.103Z,5.30
2022-09-04T01:52:29.842Z,5.33
2022-09-04T01:54:24.002Z,8.23
2022-09-04T01:56:38.212Z,4.60
2022-09-04T01:59:01.224Z,5.30
2022-09-04T02:00:57.738Z,4.07
2022-09-04T02:02:42.631Z,4.90
2022-09-04T02:04:34.853Z,3.70
2022-09-04T02:06:27.847Z,4.23
2022-09-04T02:08:21.897Z,4.43
2022-09-04T02:10:17.891Z,4.83
2022-09-04T02:12:05.095Z,4.23
2022-09-04T02:14:08.761Z,4.47
2022-09-04T02:16:26.813Z,3.63
2022-09-04T02:18:41.452Z,3.53
2022-09-04T02:20:31.667Z,5.77
2022-09-04T02:22:35.531Z,4.37
2022-09-04T02:24:47.446Z,4.10
2022-09-04T02:27:04.114Z,4.60
2022-09-04T02:29:09.526Z,4.03
2022-09-04T02:30:55.117Z,4.73
2022-09-04T02:32:49.194Z,3.97
2022-09-04T02:35:02.645Z,4.60
2022-09-04T02:37:10.279Z,20.20
2022-09-04T02:39:08.117Z,4.53
2022-09-04T02:41:14.662Z,6.23
2022-09-04T02:43:49.584Z,3.97
2022-09-04T02:46:05.792Z,3.93
2022-09-04T02:48:17.954Z,3.60
2022-09-04T02:50:11.696Z,3.43
2022-09-04T02:52:15.423Z,3.47
2022-09-04T02:54:00.244Z,3.80
2022-09-04T02:56:08.966Z,3.60
2022-09-04T02:58:01.780Z,3.37
2022-09-04T02:59:55.664Z,4.00
2022-09-04T03:01:59.365Z,3.57
2022-09-04T03:04:13.311Z,3.47
2022-09-04T03:06:01.728Z,3.50
2022-09-04T03:07:41.239Z,3.60
2022-09-04T03:09:57.591Z,3.70
2022-09-04T03:11:41.967Z,5.43
2022-09-04T03:13:28.724Z,4.60
2022-09-04T03:15:18.794Z,4.47
2022-09-04T03:17:16.276Z,4.80
2022-09-04T03:19:19.660Z,5.20
2022-09-04T03:21:16.544Z,6.57
2022-09-04T03:23:04.461Z,5.33
2022-09-04T03:25:32.219Z,4.97
2022-09-04T03:27:12.935Z,6.20
2022-09-04T03:29:14.942Z,7.13
2022-09-04T03:30:49.595Z,4.47
2022-09-04T03:32:35.358Z,10.03
2022-09-04T03:34:30.895Z,4.50
2022-09-04T03:36:32.074Z,5.53
2022-09-04T03:38:22.916Z,11.53
2022-09-04T03:40:03.912Z,4.20
2022-09-04T03:41:46.334Z,7.67
2022-09-04T03:43:50.812Z,4.67
2022-09-04T03:46:00.947Z,4.00
2022-09-04T03:47:50.165Z,7.03
2022-09-04T03:50:17.274Z,3.73
2022-09-04T03:52:13.012Z,3.90
2022-09-04T03:54:03.483Z,3.97
2022-09-04T03:55:54.615Z,4.27
2022-09-04T03:57:56.328Z,3.80
2022-09-04T04:00:09.531Z,3.90
2022-09-04T04:02:04.003Z,4.70
2022-09-04T04:04:34.277Z,4.60
2022-09-04T04:06:23.642Z,4.37
2022-09-04T04:09:04.537Z,4.73
2022-09-04T04:11:20.271Z,4.30
2022-09-04T04:13:43.560Z,4.23
2022-09-04T04:15:57.907Z,3.43
2022-09-04T04:17:48.311Z,3.40
2022-09-04T04:20:09.373Z,3.63
2022-09-04T04:22:06.555Z,3.60
2022-09-04T04:24:03.245Z,4.00
2022-09-04T04:26:09.730Z,3.80
2022-09-04T04:28:19.216Z,4.37
2022-09-04T04:30:06.338Z,3.80
2022-09-04T04:31:52.175Z,4.37
2022-09-04T04:34:22.531Z,3.77
2022-09-04T04:36:33.144Z,3.73
2022-09-04T04:39:09.859Z,3.90
2022-09-04T04:41:32.311Z,4.30
2022-09-04T04:43:32.918Z,4.57
2022-09-04T04:45:55.399Z,4.03
2022-09-04T04:48:11.054Z,3.50
2022-09-04T04:50:03.322Z,3.70
2022-09-04T04:51:53.391Z,3.40
2022-09-04T04:54:01.168Z,3.13
2022-09-04T04:55:50.297Z,3.00
2022-09-04T04:57:47.553Z,3.70
2022-09-04T05:00:03.543Z,3.63
2022-09-04T05:02:11.046Z,3.27
2022-09-04T05:04:06.311Z,3.60
2022-09-04T05:06:18.148Z,3.40
2022-09-04T05:08:12.623Z,3.10
2022-09-04T05:10:31.931Z,3.10
2022-09-04T05:12:55.081Z,3.23
2022-09-04T05:14:54.941Z,3.27
2022-09-04T05:16:53.505Z,3.10
2022-09-04T05:19:18.056Z,2.70
2022-09-04T05:20:59.864Z,3.47
2022-09-04T05:22:47.623Z,3.80
2022-09-04T05:24:32.178Z,4.07
2022-09-04T05:26:30.279Z,3.10
2022-09-04T05:28:17.124Z,4.30
2022-09-04T05:30:10.604Z,3.43
2022-09-04T05:31:57.821Z,3.70
2022-09-04T05:33:59.708Z,3.40
2022-09-04T05:35:54.224Z,3.70
2022-09-04T05:37:58.772Z,3.67
2022-09-04T05:39:56.677Z,3.87
2022-09-04T05:42:16.473Z,6.00
2022-09-04T05:44:40.027Z,3.40
2022-09-04T05:47:11.123Z,3.80
2022-09-04T05:49:16.672Z,2.87
2022-09-04T05:51:11.072Z,4.13
2022-09-04T05:53:18.955Z,4.00
2022-09-04T05:55:24.859Z,4.10
2022-09-04T05:57:23.407Z,7.33
2022-09-04T05:59:47.569Z,4.67
2022-09-04T06:01:27.173Z,6.30
2022-09-04T06:03:30.432Z,4.50
2022-09-04T06:05:30.799Z,4.30
2022-09-04T06:07:26.007Z,5.83
2022-09-04T06:09:25.352Z,5.37
2022-09-04T06:11:22.705Z,4.57
2022-09-04T06:13:49.304Z,4.33
2022-09-04T06:15:53.477Z,3.93
2022-09-04T06:17:28.595Z,4.77
2022-09-04T06:19:25.304Z,4.67
2022-09-04T06:21:26.296Z,4.90
2022-09-04T06:23:57.634Z,3.00
2022-09-04T06:26:00.614Z,4.67
2022-09-04T06:28:04.333Z,6.03
2022-09-04T06:30:03.368Z,3.83
2022-09-04T06:32:40.502Z,4.80
2022-09-04T06:34:27.526Z,4.57
2022-09-04T06:36:25.782Z,5.00
2022-09-04T06:38:33.987Z,4.90
2022-09-04T06:40:45.767Z,3.70
2022-09-04T06:42:35.489Z,4.83
2022-09-04T06:44:32.896Z,5.43
2022-09-04T06:46:38.896Z,7.77
2022-09-04T06:48:41.148Z,2.67
2022-09-04T06:50:22.898Z,4.67
2022-09-04T06:52:38.866Z,4.30
2022-09-04T06:54:55.271Z,2.33
2022-09-04T06:56:41.962Z,3.77
2022-09-04T06:58:52.005Z,3.63
2022-09-04T07:00:25.594Z,4.33
2022-09-04T07:02:33.310Z,5.10
2022-09-04T07:04:34.388Z,5.23
2022-09-04T07:06:34.071Z,5.37
2022-09-04T07:08:16.255Z,5.87
2022-09-04T07:10:25.554Z,2.43
2022-09-04T07:12:56.211Z,4.57
2022-09-04T07:15:02.556Z,5.07
2022-09-04T07:17:10.827Z,3.47
2022-09-04T07:19:07.835Z,5.50
2022-09-04T07:21:28.560Z,5.77
2022-09-04T07:23:14.517Z,3.97
2022-09-04T07:25:14.308Z,5.10
2022-09-04T07:27:12.240Z,5.17
2022-09-04T07:29:08.244Z,4.63
2022-09-04T07:30:58.424Z,5.20
2022-09-04T07:33:19.312Z,4.93
2022-09-04T07:35:25.440Z,2.47
2022-09-04T07:37:25.000Z,4.87
2022-09-04T07:39:31.019Z,4.50
2022-09-04T07:41:17.703Z,4.50
2022-09-04T07:43:10.989Z,4.80
2022-09-04T07:44:54.669Z,4.47
2022-09-04T07:46:43.834Z,4.77
2022-09-04T07:48:30.834Z,4.93
2022-09-04T07:50:26.134Z,3.67
2022-09-04T07:52:19.975Z,4.73
2022-09-04T07:54:26.228Z,3.97
2022-09-04T07:56:26.080Z,3.53
2022-09-04T07:58:38.887Z,5.00
2022-09-04T08:00:22.631Z,4.43
2022-09-04T08:02:28.059Z,4.70
2022-09-04T08:04:54.315Z,4.70
2022-09-04T08:06:55.245Z,5.17
2022-09-04T08:09:03.858Z,3.37
2022-09-04T08:11:00.705Z,5.10
2022-09-04T08:12:56.306Z,4.30
2022-09-04T08:14:40.307Z,4.60
2022-09-04T08:16:36.841Z,4.40
2022-09-04T08:18:37.402Z,4.40
2022-09-04T08:20:37.918Z,3.70
2022-09-04T08:22:28.431Z,4.57
2022-09-04T08:24:55.460Z,4.60
2022-09-04T08:27:31.263Z,4.70
2022-09-04T08:29:33.750Z,4.30
2022-09-04T08:31:31.045Z,3.80
2022-09-04T08:33:16.315Z,4.30
2022-09-04T08:35:26.973Z,4.47
2022-09-04T08:37:29.167Z,4.33
2022-09-04T08:39:28.297Z,3.30
2022-09-04T08:42:06.673Z,4.87
2022-09-04T08:44:11.209Z,5.10
2022-09-04T08:45:52.558Z,4.73
2022-09-04T08:47:57.397Z,4.07
2022-09-04T08:50:11.084Z,4.30
2022-09-04T08:52:15.258Z,4.60
2022-09-04T08:54:17.419Z,3.70
2022-09-04T08:56:27.135Z,3.23
2022-09-04T08:58:02.170Z,3.77
2022-09-04T09:00:16.580Z,4.13
2022-09-04T09:02:45.375Z,3.23
2022-09-04T09:04:36.299Z,7.30
2022-09-04T09:07:02.487Z,2.67
2022-09-04T09:09:12.899Z,4.10
2022-09-04T09:11:12.856Z,2.67
2022-09-04T09:13:13.830Z,2.90
2022-09-04T09:15:20.426Z,3.20
2022-09-04T09:17:51.115Z,1.97
2022-09-04T09:20:27.151Z,2.90
2022-09-04T09:22:26.952Z,2.47
2022-09-04T09:24:59.546Z,2.80
2022-09-04T09:27:08.439Z,2.50
2022-09-04T09:29:13.316Z,3.10
2022-09-04T09:31:34.475Z,2.97
2022-09-04T09:33:49.552Z,3.07
2022-09-04T09:35:56.026Z,2.93
2022-09-04T09:38:07.964Z,1.80
2022-09-04T09:39:55.418Z,2.80
2022-09-04T09:42:04.864Z,3.07
2022-09-04T09:44:02.128Z,2.40
2022-09-04T09:46:16.047Z,1.93
2022-09-04T09:48:11.654Z,2.53
2022-09-04T09:50:34.003Z,2.60
2022-09-04T09:52:36.025Z,2.50
2022-09-04T09:54:17.071Z,2.50
2022-09-04T09:56:32.234Z,2.53
2022-09-04T09:58:47.008Z,2.07
2022-09-04T10:00:25.315Z,2.57
2022-09-04T10:02:16.506Z,2.00
2022-09-04T10:04:16.342Z,2.20
2022-09-04T10:06:31.397Z,2.30
2022-09-04T10:08:59.712Z,2.10
2022-09-04T10:11:05.836Z,1.93
2022-09-04T10:13:09.214Z,1.83
2022-09-04T10:15:14.951Z,2.60
2022-09-04T10:17:15.987Z,2.10
2022-09-04T10:19:38.571Z,2.20
2022-09-04T10:21:48.291Z,2.60
2022-09-04T10:24:07.008Z,2.10
2022-09-04T10:26:17.320Z,2.43
2022-09-04T10:28:04.187Z,2.57
2022-09-04T10:29:45.301Z,4.07
2022-09-04T10:31:27.169Z,2.20
2022-09-04T10:33:27.433Z,1.97
2022-09-04T10:35:21.845Z,2.13
2022-09-04T10:37:20.308Z,2.70
2022-09-04T10:39:53.601Z,2.60
2022-09-04T10:41:56.796Z,2.20
2022-09-04T10:43:40.884Z,1.77
2022-09-04T10:45:54.435Z,2.30
2022-09-04T10:48:14.075Z,6.00
2022-09-04T10:49:59.732Z,2.17
2022-09-04T10:51:50.324Z,2.90
2022-09-04T10:54:07.807Z,2.93
2022-09-04T10:56:28.907Z,2.20
2022-09-04T10:58:10.619Z,2.83
2022-09-04T11:00:26.828Z,2.40
2022-09-04T11:02:11.234Z,3.00
2022-09-04T11:04:16.852Z,1.20
2022-09-04T11:06:30.164Z,3.40
2022-09-04T11:08:40.283Z,1.67
2022-09-04T11:10:20.767Z,2.10
2022-09-04T11:12:33.355Z,2.30
2022-09-04T11:14:55.847Z,2.57
2022-09-04T11:17:15.575Z,2.30
2022-09-04T11:19:54.489Z,2.00
2022-09-04T11:22:34.964Z,2.70
2022-09-04T11:24:43.768Z,2.60
2022-09-04T11:27:30.991Z,3.00
2022-09-04T11:29:41.221Z,2.97
2022-09-04T11:32:06.716Z,2.83
2022-09-04T11:34:20.122Z,2.03
2022-09-04T11:36:50.669Z,2.70
2022-09-04T11:38:40.072Z,1.80
2022-09-04T11:40:42.095Z,2.33
2022-09-04T11:42:35.283Z,1.70
2022-09-04T11:45:03.779Z,1.83
2022-09-04T11:46:59.943Z,2.43
2022-09-04T11:48:59.238Z,2.60
2022-09-04T11:51:08.128Z,2.60
2022-09-04T11:53:25.404Z,2.40
2022-09-04T11:55:30.472Z,2.63
2022-09-04T11:57:46.427Z,2.67
2022-09-04T11:59:51.755Z,2.67
2022-09-04T12:01:48.186Z,2.57
2022-09-04T12:03:49.548Z,2.60
2022-09-04T12:06:04.052Z,2.60
2022-09-04T12:08:04.028Z,2.40
2022-09-04T12:09:46.874Z,2.80
2022-09-04T12:12:00.451Z,2.60
2022-09-04T12:14:09.058Z,2.60
2022-09-04T12:16:07.596Z,2.70
2022-09-04T12:18:13.248Z,2.93
2022-09-04T12:20:14.868Z,2.60
2022-09-04T12:22:06.188Z,2.70
2022-09-04T12:24:02.286Z,2.90
2022-09-04T12:26:32.092Z,2.60
2022-09-04T12:28:41.015Z,2.70
2022-09-04T12:30:25.877Z,2.47
2022-09-04T12:32:12.163Z,2.70
2022-09-04T12:34:06.036Z,3.10
2022-09-04T12:36:23.751Z,3.80
2022-09-04T12:38:37.626Z,2.57
2022-09-04T12:40:43.504Z,3.30
2022-09-04T12:42:23.656Z,3.17
2022-09-04T12:44:13.956Z,3.23
2022-09-04T12:46:14.636Z,2.80
2022-09-04T12:47:58.759Z,2.97
2022-09-04T12:49:49.390Z,2.70
2022-09-04T12:51:28.907Z,3.53
2022-09-04T12:53:49.248Z,3.90
2022-09-04T12:56:26.218Z,3.93
2022-09-04T12:58:44.755Z,4.00
2022-09-04T13:00:18.247Z,4.73
2022-09-04T13:02:30.145Z,6.07
2022-09-04T13:04:22.725Z,3.90
2022-09-04T13:06:19.494Z,4.37
2022-09-04T13:08:26.351Z,3.10
2022-09-04T13:10:24.349Z,8.20
2022-09-04T13:12:20.455Z,3.00
2022-09-04T13:14:27.606Z,4.27
2022-09-04T13:16:23.635Z,3.37
2022-09-04T13:18:14.482Z,3.63
2022-09-04T13:20:13.238Z,4.10
2022-09-04T13:22:17.387Z,3.53
2022-09-04T13:24:09.346Z,3.47
2022-09-04T13:26:01.245Z,2.80
2022-09-04T13:27:48.227Z,3.53
2022-09-04T13:30:02.367Z,3.80
2022-09-04T13:32:06.610Z,3.87
2022-09-04T13:34:17.071Z,3.27
2022-09-04T13:36:09.174Z,3.90
2022-09-04T13:38:26.091Z,4.00
2022-09-04T13:40:12.427Z,4.17
2022-09-04T13:42:19.779Z,3.50
2022-09-04T13:44:18.381Z,3.83
2022-09-04T13:45:59.829Z,3.97
2022-09-04T13:48:05.319Z,4.20
2022-09-04T13:50:08.389Z,4.10
2022-09-04T13:52:00.323Z,5.67
2022-09-04T13:54:06.566Z,3.90
2022-09-04T13:55:50.047Z,4.60
2022-09-04T13:57:30.411Z,4.40
2022-09-04T13:59:09.718Z,4.50
2022-09-04T14:00:50.782Z,4.03
2022-09-04T14:02:27.691Z,3.83
2022-09-04T14:04:11.345Z,3.13
2022-09-04T14:05:44.735Z,3.60
2022-09-04T14:07:36.125Z,3.80
2022-09-04T14:09:12.112Z,5.90
2022-09-04T14:11:39.331Z,5.37
2022-09-04T14:13:56.348Z,4.50
2022-09-04T14:16:06.035Z,4.37
2022-09-04T14:17:55.580Z,4.30
2022-09-04T14:20:16.079Z,4.17
2022-09-04T14:22:11.854Z,4.53
2022-09-04T14:23:53.059Z,4.40
2022-09-04T14:25:54.811Z,4.50
2022-09-04T14:27:55.452Z,4.80
2022-09-04T14:29:39.186Z,4.10
2022-09-04T14:31:40.537Z,4.40
2022-09-04T14:33:36.104Z,4.93
2022-09-04T14:35:43.764Z,5.33
2022-09-04T14:37:27.803Z,4.23
2022-09-04T14:39:41.594Z,9.00
2022-09-04T14:41:54.553Z,4.97
2022-09-04T14:44:06.888Z,6.00
2022-09-04T14:46:06.893Z,3.93
2022-09-04T14:47:54.767Z,3.90
2022-09-04T14:49:31.823Z,8.00
2022-09-04T14:51:22.200Z,3.63
2022-09-04T14:53:08.556Z,4.03
2022-09-04T14:54:44.411Z,6.77
2022-09-04T14:56:41.291Z,4.43
2022-09-04T14:58:34.861Z,3.97
2022-09-04T15:00:17.305Z,11.03
2022-09-04T15:02:17.591Z,5.13
2022-09-04T15:04:36.269Z,3.87
2022-09-04T15:06:29.100Z,3.70
2022-09-04T15:08:07.567Z,3.40
2022-09-04T15:09:45.814Z,3.30
2022-09-04T15:11:34.705Z,3.90
2022-09-04T15:13:27.867Z,3.73
2022-09-04T15:15:14.971Z,4.07
2022-09-04T15:16:55.737Z,3.60
2022-09-04T15:18:50.527Z,3.40
2022-09-04T15:20:28.340Z,3.87
2022-09-04T15:22:36.699Z,3.40
2022-09-04T15:24:19.670Z,3.70
2022-09-04T15:26:06.560Z,3.63
2022-09-04T15:27:52.641Z,3.73
2022-09-04T15:30:16.370Z,3.10
2022-09-04T15:31:59.773Z,3.50
2022-09-04T15:33:32.197Z,3.87
2022-09-04T15:35:32.727Z,3.77
2022-09-04T15:37:16.560Z,4.07
2022-09-04T15:38:55.737Z,5.10
2022-09-04T15:41:16.826Z,4.83
2022-09-04T15:43:17.567Z,4.87
2022-09-04T15:44:50.358Z,5.43
2022-09-04T15:47:14.156Z,4.90
2022-09-04T15:49:36.996Z,4.53
2022-09-04T15:51:28.475Z,4.53
2022-09-04T15:53:27.226Z,3.93
2022-09-04T15:55:31.580Z,3.90
2022-09-04T15:57:27.993Z,4.17
2022-09-04T15:59:30.298Z,3.97
2022-09-04T16:01:06.468Z,3.90
2022-09-04T16:02:54.579Z,3.93
2022-09-04T16:04:45.272Z,4.37
2022-09-04T16:07:12.966Z,3.83
2022-09-04T16:08:57.038Z,4.07
2022-09-04T16:11:03.174Z,4.07
2022-09-04T16:12:52.434Z,4.10
2022-09-04T16:14:33.711Z,3.97
2022-09-04T16:16:43.415Z,3.90
2022-09-04T16:18:46.737Z,3.93
2022-09-04T16:20:56.735Z,3.67
2022-09-04T16:22:48.951Z,4.13
2022-09-04T16:24:35.596Z,3.87
2022-09-04T16:26:17.145Z,4.40
2022-09-04T16:27:56.435Z,4.27
2022-09-04T16:29:32.795Z,4.30
2022-09-04T16:31:12.311Z,4.43
2022-09-04T16:32:45.187Z,4.10
2022-09-04T16:34:37.315Z,4.40
2022-09-04T16:36:16.835Z,4.33
2022-09-04T16:37:58.914Z,4.50
2022-09-04T16:39:47.314Z,4.63
2022-09-04T16:41:50.087Z,4.30
2022-09-04T16:43:34.326Z,4.70
2022-09-04T16:45:22.364Z,4.30
2022-09-04T16:47:03.040Z,4.97
2022-09-04T16:48:51.381Z,4.50
2022-09-04T16:51:29.126Z,5.10
2022-09-04T16:53:27.358Z,5.00
2022-09-04T16:55:21.593Z,5.37
2022-09-04T16:57:15.429Z,5.63
2022-09-04T16:58:56.944Z,5.30
2022-09-04T17:01:13.829Z,4.90
2022-09-04T17:03:07.152Z,5.57
2022-09-04T17:04:50.867Z,6.10
2022-09-04T17:06:57.482Z,5.60
2022-09-04T17:08:50.054Z,6.03
2022-09-04T17:10:58.736Z,5.83
2022-09-04T17:13:15.671Z,6.13
2022-09-04T17:15:25.109Z,6.23
2022-09-04T17:17:31.583Z,6.20
2022-09-04T17:19:04.968Z,6.47
2022-09-04T17:21:49.379Z,5.93
2022-09-04T17:29:03.251Z,7.00
2022-09-04T17:29:16.516Z,6.40
2022-09-04T17:29:18.360Z,6.13
2022-09-04T17:29:48.606Z,6.70
2022-09-04T17:31:33.197Z,7.33
2022-09-04T17:40:37.721Z,7.40
2022-09-04T17:40:41.099Z,6.33
2022-09-04T17:40:44.054Z,6.73
2022-09-04T17:40:48.714Z,7.10
2022-09-04T17:42:22.122Z,6.93
2022-09-04T17:44:14.347Z,6.87
2022-09-04T17:46:08.311Z,7.40
2022-09-04T17:47:43.015Z,6.90
2022-09-04T17:49:29.564Z,7.37
2022-09-04T17:51:08.746Z,6.87
2022-09-04T17:53:05.106Z,7.43
2022-09-04T17:54:49.133Z,7.37
2022-09-04T17:56:52.966Z,7.90
2022-09-04T17:58:49.282Z,7.97
2022-09-04T18:00:28.344Z,8.77
2022-09-04T18:02:30.496Z,8.10
2022-09-04T18:04:33.710Z,8.80
2022-09-04T18:06:15.592Z,8.57
2022-09-04T18:08:13.920Z,8.80
2022-09-04T18:10:31.395Z,8.80
2022-09-04T18:12:25.086Z,8.27
2022-09-04T18:14:17.742Z,7.70
2022-09-04T18:16:36.656Z,8.00
2022-09-04T18:18:27.873Z,7.90
2022-09-04T18:20:29.515Z,8.90
2022-09-04T18:22:31.889Z,8.77
2022-09-04T18:24:21.370Z,9.90
2022-09-04T18:26:05.383Z,8.53
2022-09-04T18:28:15.117Z,9.30
2022-09-04T18:33:19.784Z,10.40
2022-09-04T18:37:11.415Z,10.77
2022-09-04T18:37:19.445Z,9.53
2022-09-04T18:37:20.787Z,10.13
2022-09-04T18:38:16.770Z,9.90
2022-09-04T18:39:57.892Z,8.53
2022-09-04T18:49:54.098Z,8.10
2022-09-04T18:50:29.023Z,8.33
2022-09-04T18:50:37.436Z,8.80
2022-09-04T18:50:50.534Z,9.03
2022-09-04T18:50:50.534Z,8.60
2022-09-04T18:52:02.341Z,8.80
2022-09-04T18:53:57.009Z,8.60
2022-09-04T18:55:41.706Z,9.10
2022-09-04T18:57:46.770Z,7.93
2022-09-04T18:59:36.519Z,8.63
2022-09-04T19:01:27.653Z,8.60
2022-09-04T19:03:22.233Z,8.40
2022-09-04T19:05:09.971Z,8.67
2022-09-04T19:07:08.907Z,8.33
2022-09-04T19:08:52.692Z,7.93
2022-09-04T19:10:37.030Z,7.80
2022-09-04T19:12:17.923Z,8.70
2022-09-04T19:13:54.477Z,8.20
2022-09-04T19:15:59.265Z,8.47
2022-09-04T19:17:40.603Z,8.53
2022-09-04T19:19:19.302Z,8.77
2022-09-04T19:21:14.509Z,8.03
2022-09-04T19:22:58.374Z,7.30
2022-09-04T19:24:56.613Z,7.67
2022-09-04T19:26:39.809Z,8.37
2022-09-04T19:28:40.580Z,7.83
2022-09-04T19:30:29.617Z,8.27
2022-09-04T19:32:31.832Z,7.87
2022-09-04T19:34:50.188Z,8.10
2022-09-04T19:37:28.120Z,7.63
2022-09-04T19:46:03.816Z,7.93
2022-09-04T19:46:04.666Z,7.37
2022-09-04T19:46:07.544Z,8.10
2022-09-04T19:46:27.669Z,8.30
2022-09-04T19:48:20.899Z,7.50
2022-09-04T19:53:19.481Z,7.73
2022-09-04T19:53:33.789Z,8.10
2022-09-04T19:54:19.722Z,7.97
2022-09-04T19:56:06.718Z,8.30
2022-09-04T19:57:46.484Z,7.70
2022-09-04T19:59:53.237Z,7.83
2022-09-04T20:01:47.891Z,7.30
2022-09-04T20:03:33.918Z,8.70
2022-09-04T20:05:31.475Z,7.73
2022-09-04T20:07:13.074Z,7.73
2022-09-04T20:09:21.768Z,8.37
2022-09-04T20:11:35.207Z,8.23
2022-09-04T20:13:16.351Z,7.93
2022-09-04T20:15:04.504Z,9.10
2022-09-04T20:17:06.043Z,9.00
2022-09-04T20:18:56.095Z,8.37
2022-09-04T20:20:42.641Z,7.30
2022-09-04T20:22:47.553Z,8.70
2022-09-04T20:25:02.699Z,8.07
2022-09-04T20:26:50.777Z,8.13
2022-09-04T20:28:47.834Z,7.77
2022-09-04T20:30:25.055Z,7.30
2022-09-04T20:32:11.833Z,7.63
2022-09-04T20:33:50.716Z,8.17
2022-09-04T20:36:03.746Z,8.13
2022-09-04T20:37:38.896Z,8.27
2022-09-04T20:39:22.030Z,8.93
2022-09-04T20:41:46.660Z,8.87
2022-09-04T20:43:54.847Z,8.80
2022-09-04T20:51:13.787Z,9.03
2022-09-04T20:52:48.761Z,8.80
2022-09-04T20:52:58.243Z,8.83
2022-09-04T20:53:07.449Z,9.07
2022-09-04T20:55:10.554Z,8.37
2022-09-04T20:59:22.319Z,9.00
2022-09-04T21:03:12.922Z,9.27
2022-09-04T21:03:14.506Z,8.60
2022-09-04T21:03:43.946Z,8.43
2022-09-04T21:06:01.223Z,8.17
2022-09-04T21:07:53.355Z,8.57
2022-09-04T21:09:55.197Z,8.57
2022-09-04T21:11:41.930Z,8.43
2022-09-04T21:13:29.175Z,8.10
2022-09-04T21:15:16.072Z,8.67
2022-09-04T21:17:35.938Z,7.93
2022-09-04T21:19:47.635Z,8.43
2022-09-04T21:21:23.111Z,8.47
2022-09-04T21:24:12.688Z,8.17
2022-09-04T21:26:36.691Z,7.70
2022-09-04T21:29:12.067Z,8.07
2022-09-04T21:31:05.488Z,7.90
2022-09-04T21:33:28.244Z,7.73
2022-09-04T21:35:13.876Z,7.43
2022-09-04T21:37:16.091Z,7.40
2022-09-04T21:39:26.479Z,7.47
2022-09-04T21:41:21.644Z,7.93
2022-09-04T21:43:35.554Z,7.40
2022-09-04T21:45:41.806Z,7.10
2022-09-04T21:47:37.031Z,6.93
2022-09-04T21:49:35.790Z,7.37
2022-09-04T21:51:48.378Z,7.80
2022-09-04T21:53:52.584Z,7.50
2022-09-04T22:00:54.845Z,6.97
2022-09-04T22:02:36.671Z,7.40
2022-09-04T22:02:37.498Z,7.00
2022-09-04T22:02:42.823Z,7.50
2022-09-04T22:04:30.931Z,7.53
2022-09-04T22:06:31.351Z,7.80
2022-09-04T22:13:28.520Z,7.70
2022-09-04T22:13:39.300Z,7.83
2022-09-04T22:13:42.207Z,7.60
2022-09-04T22:15:17.742Z,8.40
2022-09-04T22:17:41.985Z,7.37
2022-09-04T22:19:28.083Z,7.83
2022-09-04T22:21:24.903Z,7.20
2022-09-04T22:23:33.542Z,7.67
2022-09-04T22:25:14.953Z,7.60
2022-09-04T22:27:11.560Z,7.37
2022-09-04T22:29:10.180Z,7.70
2022-09-04T22:31:10.488Z,7.47
2022-09-04T22:33:19.746Z,7.67
2022-09-04T22:35:45.123Z,6.97
2022-09-04T22:37:34.783Z,7.20
2022-09-04T22:40:05.600Z,7.23
2022-09-04T22:42:20.330Z,7.57
2022-09-04T22:44:34.987Z,6.63
2022-09-04T22:47:28.920Z,7.03
2022-09-04T22:49:20.691Z,5.90
2022-09-04T22:51:14.275Z,7.13
2022-09-04T22:53:13.503Z,6.73
2022-09-04T22:54:52.663Z,7.47
2022-09-04T22:56:54.894Z,7.50
2022-09-04T22:58:42.476Z,7.00
2022-09-04T23:00:22.062Z,7.27
2022-09-04T23:03:09.855Z,6.60
2022-09-04T23:05:20.019Z,6.97
2022-09-04T23:13:43.116Z,6.73
2022-09-04T23:13:43.965Z,7.13
2022-09-04T23:13:59.243Z,7.10
2022-09-04T23:14:36.131Z,6.80
2022-09-04T23:16:28.314Z,6.80
2022-09-04T23:19:25.107Z,7.30
2022-09-04T23:25:55.451Z,7.37
2022-09-04T23:26:37.639Z,7.07
2022-09-04T23:26:47.561Z,6.73
2022-09-04T23:27:34.659Z,7.10
2022-09-04T23:29:59.435Z,7.07
2022-09-04T23:32:07.335Z,7.33
2022-09-04T23:34:25.363Z,6.60
2022-09-04T23:36:51.043Z,7.20
2022-09-04T23:38:50.267Z,7.33
2022-09-04T23:41:01.728Z,7.10
2022-09-04T23:43:34.553Z,7.23
2022-09-04T23:46:08.077Z,7.20
2022-09-04T23:48:28.982Z,7.07
2022-09-04T23:50:47.463Z,6.77
2022-09-04T23:53:14.652Z,7.10
2022-09-04T23:55:36.659Z,7.67
2022-09-04T23:58:33.862Z,7.60
